sensor_id;sensor_type;location;lat;lon;timestamp;temperature;humidity
736;DHT22;352;48.626;9.238;2023-03-01T00:01:02;1.10;99.90
736;DHT22;352;48.626;9.238;2023-03-01T00:03:29;1.10;99.90
736;DHT22;352;48.626;9.238;2023-03-01T00:05:57;1.10;99.90
736;DHT22;352;48.626;9.238;2023-03-01T00:08:24;1.00;99.90
736;DHT22;352;48.626;9.238;2023-03-01T00:11:00;1.00;99.90
736;DHT22;352;48.626;9.238;2023-03-01T00:13:26;1.00;99.90
736;DHT22;352;48.626;9.238;2023-03-01T00:15:53;1.00;99.90
736;DHT22;352;48.626;9.238;2023-03-01T00:18:21;1.00;99.90
736;DHT22;352;48.626;9.238;2023-03-01T00:20:50;1.00;99.90
736;DHT22;352;48.626;9.238;2023-03-01T00:23:17;0.90;99.90
736;DHT22;352;48.626;9.238;2023-03-01T00:25:44;0.80;99.90
736;DHT22;352;48.626;9.238;2023-03-01T00:28:11;0.80;99.90
736;DHT22;352;48.626;9.238;2023-03-01T00:30:38;0.70;99.90
736;DHT22;352;48.626;9.238;2023-03-01T00:33:04;0.70;99.90
736;DHT22;352;48.626;9.238;2023-03-01T00:35:33;0.70;99.90
736;DHT22;352;48.626;9.238;2023-03-01T00:38:00;0.70;99.90
736;DHT22;352;48.626;9.238;2023-03-01T00:40:28;0.60;99.90
736;DHT22;352;48.626;9.238;2023-03-01T00:42:55;0.60;99.90
736;DHT22;352;48.626;9.238;2023-03-01T00:45:23;0.60;99.90
736;DHT22;352;48.626;9.238;2023-03-01T00:47:50;0.60;99.90
736;DHT22;352;48.626;9.238;2023-03-01T00:50:17;0.60;99.90
736;DHT22;352;48.626;9.238;2023-03-01T00:52:46;0.60;99.90
736;DHT22;352;48.626;9.238;2023-03-01T00:55:13;0.60;99.90
736;DHT22;352;48.626;9.238;2023-03-01T00:57:39;0.60;99.90
736;DHT22;352;48.626;9.238;2023-03-01T01:00:07;0.60;99.90
736;DHT22;352;48.626;9.238;2023-03-01T01:02:35;0.60;99.90
736;DHT22;352;48.626;9.238;2023-03-01T01:05:03;0.60;99.90
736;DHT22;352;48.626;9.238;2023-03-01T01:07:30;0.60;99.90
736;DHT22;352;48.626;9.238;2023-03-01T01:09:58;0.50;99.90
736;DHT22;352;48.626;9.238;2023-03-01T01:12:25;0.50;99.90
736;DHT22;352;48.626;9.238;2023-03-01T01:14:51;0.50;99.90
736;DHT22;352;48.626;9.238;2023-03-01T01:17:18;0.50;99.90
736;DHT22;352;48.626;9.238;2023-03-01T01:19:45;0.50;99.90
736;DHT22;352;48.626;9.238;2023-03-01T01:22:11;0.50;99.90
736;DHT22;352;48.626;9.238;2023-03-01T01:24:38;0.50;99.90
736;DHT22;352;48.626;9.238;2023-03-01T01:27:06;0.50;99.90
736;DHT22;352;48.626;9.238;2023-03-01T01:29:33;0.50;99.90
736;DHT22;352;48.626;9.238;2023-03-01T01:34:26;0.40;99.90
736;DHT22;352;48.626;9.238;2023-03-01T01:36:53;0.50;99.90
736;DHT22;352;48.626;9.238;2023-03-01T01:39:20;0.60;99.90
736;DHT22;352;48.626;9.238;2023-03-01T01:41:47;0.60;99.90
736;DHT22;352;48.626;9.238;2023-03-01T01:44:18;0.70;99.90
736;DHT22;352;48.626;9.238;2023-03-01T01:46:47;0.80;99.90
736;DHT22;352;48.626;9.238;2023-03-01T01:49:22;0.90;99.90
736;DHT22;352;48.626;9.238;2023-03-01T01:51:52;0.90;99.90
736;DHT22;352;48.626;9.238;2023-03-01T01:54:23;1.00;99.90
736;DHT22;352;48.626;9.238;2023-03-01T01:56:55;1.00;99.90
736;DHT22;352;48.626;9.238;2023-03-01T01:59:24;1.00;99.90
736;DHT22;352;48.626;9.238;2023-03-01T02:01:51;1.10;99.90
736;DHT22;352;48.626;9.238;2023-03-01T02:04:20;1.10;99.90
736;DHT22;352;48.626;9.238;2023-03-01T02:06:49;1.20;99.90
736;DHT22;352;48.626;9.238;2023-03-01T02:09:18;1.30;99.90
736;DHT22;352;48.626;9.238;2023-03-01T02:11:47;1.40;99.90
736;DHT22;352;48.626;9.238;2023-03-01T02:14:14;1.50;99.90
736;DHT22;352;48.626;9.238;2023-03-01T02:16:43;1.50;99.90
736;DHT22;352;48.626;9.238;2023-03-01T02:19:14;1.40;99.90
736;DHT22;352;48.626;9.238;2023-03-01T02:21:55;1.40;99.90
736;DHT22;352;48.626;9.238;2023-03-01T02:24:29;1.40;99.90
736;DHT22;352;48.626;9.238;2023-03-01T02:27:00;1.40;99.90
736;DHT22;352;48.626;9.238;2023-03-01T02:29:29;1.50;99.90
736;DHT22;352;48.626;9.238;2023-03-01T02:31:57;1.60;99.90
736;DHT22;352;48.626;9.238;2023-03-01T02:34:26;1.60;99.90
736;DHT22;352;48.626;9.238;2023-03-01T02:36:54;1.60;99.90
736;DHT22;352;48.626;9.238;2023-03-01T02:39:27;1.60;99.90
736;DHT22;352;48.626;9.238;2023-03-01T02:41:56;1.60;99.90
736;DHT22;352;48.626;9.238;2023-03-01T02:44:24;1.70;99.90
736;DHT22;352;48.626;9.238;2023-03-01T02:46:55;1.70;99.90
736;DHT22;352;48.626;9.238;2023-03-01T02:49:24;1.70;99.90
736;DHT22;352;48.626;9.238;2023-03-01T02:52:27;1.80;99.90
736;DHT22;352;48.626;9.238;2023-03-01T02:55:00;1.80;99.90
736;DHT22;352;48.626;9.238;2023-03-01T02:57:28;1.80;99.90
736;DHT22;352;48.626;9.238;2023-03-01T02:59:58;1.80;99.90
736;DHT22;352;48.626;9.238;2023-03-01T03:02:29;1.80;99.90
736;DHT22;352;48.626;9.238;2023-03-01T03:05:04;1.90;99.90
736;DHT22;352;48.626;9.238;2023-03-01T03:07:32;1.90;99.90
736;DHT22;352;48.626;9.238;2023-03-01T03:09:59;1.90;99.90
736;DHT22;352;48.626;9.238;2023-03-01T03:12:26;1.90;99.90
736;DHT22;352;48.626;9.238;2023-03-01T03:14:52;1.90;99.90
736;DHT22;352;48.626;9.238;2023-03-01T03:17:19;1.90;99.90
736;DHT22;352;48.626;9.238;2023-03-01T03:19:47;2.00;99.90
736;DHT22;352;48.626;9.238;2023-03-01T03:22:14;2.00;99.90
736;DHT22;352;48.626;9.238;2023-03-01T03:24:41;1.90;99.90
736;DHT22;352;48.626;9.238;2023-03-01T03:27:08;2.00;99.90
736;DHT22;352;48.626;9.238;2023-03-01T03:29:34;2.00;99.90
736;DHT22;352;48.626;9.238;2023-03-01T03:32:01;2.00;99.90
736;DHT22;352;48.626;9.238;2023-03-01T03:34:28;2.10;99.90
736;DHT22;352;48.626;9.238;2023-03-01T03:36:57;2.00;99.90
736;DHT22;352;48.626;9.238;2023-03-01T03:39:25;2.00;99.90
736;DHT22;352;48.626;9.238;2023-03-01T03:41:51;2.00;99.90
736;DHT22;352;48.626;9.238;2023-03-01T03:44:18;2.00;99.90
736;DHT22;352;48.626;9.238;2023-03-01T03:46:45;2.00;99.90
736;DHT22;352;48.626;9.238;2023-03-01T03:49:11;2.00;99.90
736;DHT22;352;48.626;9.238;2023-03-01T03:51:38;2.10;99.90
736;DHT22;352;48.626;9.238;2023-03-01T03:54:06;2.10;99.90
736;DHT22;352;48.626;9.238;2023-03-01T03:56:33;2.10;99.90
736;DHT22;352;48.626;9.238;2023-03-01T03:59:00;2.10;99.90
736;DHT22;352;48.626;9.238;2023-03-01T04:01:27;2.00;99.90
736;DHT22;352;48.626;9.238;2023-03-01T04:03:53;2.10;99.90
736;DHT22;352;48.626;9.238;2023-03-01T04:06:21;2.10;99.90
736;DHT22;352;48.626;9.238;2023-03-01T04:08:48;2.00;99.90
736;DHT22;352;48.626;9.238;2023-03-01T04:11:17;2.00;99.90
736;DHT22;352;48.626;9.238;2023-03-01T04:13:55;2.10;99.90
736;DHT22;352;48.626;9.238;2023-03-01T04:16:22;2.10;99.90
736;DHT22;352;48.626;9.238;2023-03-01T04:18:49;2.10;99.90
736;DHT22;352;48.626;9.238;2023-03-01T04:21:16;2.10;99.90
736;DHT22;352;48.626;9.238;2023-03-01T04:23:43;2.00;99.90
736;DHT22;352;48.626;9.238;2023-03-01T04:26:09;2.00;99.90
736;DHT22;352;48.626;9.238;2023-03-01T04:28:39;2.00;99.90
736;DHT22;352;48.626;9.238;2023-03-01T04:31:10;2.10;99.90
736;DHT22;352;48.626;9.238;2023-03-01T04:33:39;2.10;99.90
736;DHT22;352;48.626;9.238;2023-03-01T04:36:07;2.10;99.90
736;DHT22;352;48.626;9.238;2023-03-01T04:38:35;2.10;99.90
736;DHT22;352;48.626;9.238;2023-03-01T04:41:03;2.10;99.90
736;DHT22;352;48.626;9.238;2023-03-01T04:43:29;2.10;99.90
736;DHT22;352;48.626;9.238;2023-03-01T04:46:01;2.10;99.90
736;DHT22;352;48.626;9.238;2023-03-01T04:48:29;2.10;99.90
736;DHT22;352;48.626;9.238;2023-03-01T04:50:56;2.10;99.90
736;DHT22;352;48.626;9.238;2023-03-01T04:53:24;2.10;99.90
736;DHT22;352;48.626;9.238;2023-03-01T04:55:51;2.10;99.90
736;DHT22;352;48.626;9.238;2023-03-01T04:58:17;2.10;99.90
736;DHT22;352;48.626;9.238;2023-03-01T05:00:44;2.10;99.90
736;DHT22;352;48.626;9.238;2023-03-01T05:03:12;2.10;99.90
736;DHT22;352;48.626;9.238;2023-03-01T05:05:44;2.10;99.90
736;DHT22;352;48.626;9.238;2023-03-01T05:08:12;2.10;99.90
736;DHT22;352;48.626;9.238;2023-03-01T05:10:43;2.10;99.90
736;DHT22;352;48.626;9.238;2023-03-01T05:13:11;2.10;99.90
736;DHT22;352;48.626;9.238;2023-03-01T05:15:40;2.10;99.90
736;DHT22;352;48.626;9.238;2023-03-01T05:18:07;2.10;99.90
736;DHT22;352;48.626;9.238;2023-03-01T05:20:38;2.10;99.90
736;DHT22;352;48.626;9.238;2023-03-01T05:23:04;2.10;99.90
736;DHT22;352;48.626;9.238;2023-03-01T05:25:32;2.10;99.90
736;DHT22;352;48.626;9.238;2023-03-01T05:27:59;2.10;99.90
736;DHT22;352;48.626;9.238;2023-03-01T05:30:30;2.10;99.90
736;DHT22;352;48.626;9.238;2023-03-01T05:32:56;2.10;99.90
736;DHT22;352;48.626;9.238;2023-03-01T05:35:23;2.10;99.90
736;DHT22;352;48.626;9.238;2023-03-01T05:37:51;2.20;99.90
736;DHT22;352;48.626;9.238;2023-03-01T05:40:20;2.20;99.90
736;DHT22;352;48.626;9.238;2023-03-01T05:42:47;2.20;99.90
736;DHT22;352;48.626;9.238;2023-03-01T05:45:16;2.20;99.90
736;DHT22;352;48.626;9.238;2023-03-01T05:47:44;2.20;99.90
736;DHT22;352;48.626;9.238;2023-03-01T05:50:14;2.20;99.90
736;DHT22;352;48.626;9.238;2023-03-01T05:52:45;2.30;99.90
736;DHT22;352;48.626;9.238;2023-03-01T05:55:13;2.30;99.90
736;DHT22;352;48.626;9.238;2023-03-01T05:57:39;2.30;99.90
736;DHT22;352;48.626;9.238;2023-03-01T06:00:07;2.30;99.90
736;DHT22;352;48.626;9.238;2023-03-01T06:02:34;2.30;99.90
736;DHT22;352;48.626;9.238;2023-03-01T06:05:01;2.30;99.90
736;DHT22;352;48.626;9.238;2023-03-01T06:07:28;2.30;99.90
736;DHT22;352;48.626;9.238;2023-03-01T06:09:54;2.30;99.90
736;DHT22;352;48.626;9.238;2023-03-01T06:12:22;2.30;99.90
736;DHT22;352;48.626;9.238;2023-03-01T06:14:49;2.30;99.90
736;DHT22;352;48.626;9.238;2023-03-01T06:17:16;2.30;99.90
736;DHT22;352;48.626;9.238;2023-03-01T06:19:42;2.30;99.90
736;DHT22;352;48.626;9.238;2023-03-01T06:22:09;2.30;99.90
736;DHT22;352;48.626;9.238;2023-03-01T06:24:36;2.30;99.90
736;DHT22;352;48.626;9.238;2023-03-01T06:27:02;2.30;99.90
736;DHT22;352;48.626;9.238;2023-03-01T06:29:31;2.30;99.90
736;DHT22;352;48.626;9.238;2023-03-01T06:31:57;2.30;99.90
736;DHT22;352;48.626;9.238;2023-03-01T06:34:24;2.30;99.90
736;DHT22;352;48.626;9.238;2023-03-01T06:36:51;2.30;99.90
736;DHT22;352;48.626;9.238;2023-03-01T06:39:17;2.30;99.90
736;DHT22;352;48.626;9.238;2023-03-01T06:41:44;2.30;99.90
736;DHT22;352;48.626;9.238;2023-03-01T06:44:11;2.30;99.90
736;DHT22;352;48.626;9.238;2023-03-01T06:46:40;2.30;99.90
736;DHT22;352;48.626;9.238;2023-03-01T06:49:06;2.40;99.90
736;DHT22;352;48.626;9.238;2023-03-01T06:51:35;2.40;99.90
736;DHT22;352;48.626;9.238;2023-03-01T06:54:02;2.50;99.90
736;DHT22;352;48.626;9.238;2023-03-01T06:56:29;2.50;99.90
736;DHT22;352;48.626;9.238;2023-03-01T06:58:56;2.70;99.90
736;DHT22;352;48.626;9.238;2023-03-01T07:01:22;2.70;99.90
736;DHT22;352;48.626;9.238;2023-03-01T07:03:50;2.80;99.90
736;DHT22;352;48.626;9.238;2023-03-01T07:06:17;2.90;99.90
736;DHT22;352;48.626;9.238;2023-03-01T07:08:44;2.90;99.90
736;DHT22;352;48.626;9.238;2023-03-01T07:11:11;2.90;99.90
736;DHT22;352;48.626;9.238;2023-03-01T07:13:38;3.00;99.90
736;DHT22;352;48.626;9.238;2023-03-01T07:16:05;3.00;99.90
736;DHT22;352;48.626;9.238;2023-03-01T07:18:32;3.10;99.90
736;DHT22;352;48.626;9.238;2023-03-01T07:21:05;3.20;99.90
736;DHT22;352;48.626;9.238;2023-03-01T07:23:32;3.20;99.90
736;DHT22;352;48.626;9.238;2023-03-01T07:25:59;3.30;99.90
736;DHT22;352;48.626;9.238;2023-03-01T07:28:27;3.30;99.90
736;DHT22;352;48.626;9.238;2023-03-01T07:30:54;3.50;99.90
736;DHT22;352;48.626;9.238;2023-03-01T07:33:21;3.50;99.90
736;DHT22;352;48.626;9.238;2023-03-01T07:35:48;3.60;99.90
736;DHT22;352;48.626;9.238;2023-03-01T07:38:16;3.60;99.90
736;DHT22;352;48.626;9.238;2023-03-01T07:40:43;3.70;99.90
736;DHT22;352;48.626;9.238;2023-03-01T07:43:09;3.70;99.90
736;DHT22;352;48.626;9.238;2023-03-01T07:45:36;3.70;99.90
736;DHT22;352;48.626;9.238;2023-03-01T07:48:03;3.70;99.90
736;DHT22;352;48.626;9.238;2023-03-01T07:50:30;3.70;99.90
736;DHT22;352;48.626;9.238;2023-03-01T07:52:57;3.80;99.70
736;DHT22;352;48.626;9.238;2023-03-01T07:55:25;3.80;99.60
736;DHT22;352;48.626;9.238;2023-03-01T07:57:52;3.90;99.40
736;DHT22;352;48.626;9.238;2023-03-01T08:00:19;4.00;99.50
736;DHT22;352;48.626;9.238;2023-03-01T08:02:46;4.10;99.30
736;DHT22;352;48.626;9.238;2023-03-01T08:05:12;4.30;99.10
736;DHT22;352;48.626;9.238;2023-03-01T08:07:39;4.40;98.70
736;DHT22;352;48.626;9.238;2023-03-01T08:10:06;4.50;98.50
736;DHT22;352;48.626;9.238;2023-03-01T08:12:34;4.50;98.30
736;DHT22;352;48.626;9.238;2023-03-01T08:15:01;4.70;98.20
736;DHT22;352;48.626;9.238;2023-03-01T08:17:27;4.90;98.30
736;DHT22;352;48.626;9.238;2023-03-01T08:19:54;5.00;98.00
736;DHT22;352;48.626;9.238;2023-03-01T08:22:21;5.00;97.60
736;DHT22;352;48.626;9.238;2023-03-01T08:24:48;5.00;97.40
736;DHT22;352;48.626;9.238;2023-03-01T08:27:15;4.90;97.00
736;DHT22;352;48.626;9.238;2023-03-01T08:29:43;5.10;97.20
736;DHT22;352;48.626;9.238;2023-03-01T08:32:10;5.20;96.60
736;DHT22;352;48.626;9.238;2023-03-01T08:34:37;5.40;96.40
736;DHT22;352;48.626;9.238;2023-03-01T08:37:03;5.50;99.90
736;DHT22;352;48.626;9.238;2023-03-01T08:39:30;5.80;99.90
736;DHT22;352;48.626;9.238;2023-03-01T08:41:57;6.10;99.90
736;DHT22;352;48.626;9.238;2023-03-01T08:44:24;6.50;99.90
736;DHT22;352;48.626;9.238;2023-03-01T08:46:52;6.80;95.20
736;DHT22;352;48.626;9.238;2023-03-01T08:49:21;7.40;94.20
736;DHT22;352;48.626;9.238;2023-03-01T08:51:49;8.00;99.90
736;DHT22;352;48.626;9.238;2023-03-01T08:54:17;9.30;89.30
736;DHT22;352;48.626;9.238;2023-03-01T08:56:45;10.70;82.70
736;DHT22;352;48.626;9.238;2023-03-01T08:59:12;11.70;93.10
736;DHT22;352;48.626;9.238;2023-03-01T09:04:10;12.50;73.20
736;DHT22;352;48.626;9.238;2023-03-01T09:09:05;13.80;68.50
736;DHT22;352;48.626;9.238;2023-03-01T09:13:59;14.40;80.20
736;DHT22;352;48.626;9.238;2023-03-01T09:21:23;14.70;60.90
736;DHT22;352;48.626;9.238;2023-03-01T09:26:18;14.30;78.70
736;DHT22;352;48.626;9.238;2023-03-01T09:28:47;14.60;71.00
736;DHT22;352;48.626;9.238;2023-03-01T09:31:15;14.50;60.20
736;DHT22;352;48.626;9.238;2023-03-01T09:33:44;14.70;59.90
736;DHT22;352;48.626;9.238;2023-03-01T09:36:13;15.80;80.80
736;DHT22;352;48.626;9.238;2023-03-01T09:38:41;15.90;56.50
736;DHT22;352;48.626;9.238;2023-03-01T09:41:11;15.60;57.00
736;DHT22;352;48.626;9.238;2023-03-01T09:43:49;15.60;56.80
736;DHT22;352;48.626;9.238;2023-03-01T09:46:21;16.80;56.10
736;DHT22;352;48.626;9.238;2023-03-01T09:48:50;17.00;71.80
736;DHT22;352;48.626;9.238;2023-03-01T09:51:25;16.80;53.60
736;DHT22;352;48.626;9.238;2023-03-01T09:53:53;17.50;73.30
736;DHT22;352;48.626;9.238;2023-03-01T09:56:28;17.20;53.40
736;DHT22;352;48.626;9.238;2023-03-01T09:59:01;16.10;60.50
736;DHT22;352;48.626;9.238;2023-03-01T10:01:35;17.70;80.30
736;DHT22;352;48.626;9.238;2023-03-01T10:04:18;16.60;75.00
736;DHT22;352;48.626;9.238;2023-03-01T10:06:54;16.90;71.00
736;DHT22;352;48.626;9.238;2023-03-01T10:09:27;16.90;52.80
736;DHT22;352;48.626;9.238;2023-03-01T10:11:56;17.30;52.50
736;DHT22;352;48.626;9.238;2023-03-01T10:14:30;18.30;51.50
736;DHT22;352;48.626;9.238;2023-03-01T10:17:02;17.50;50.60
736;DHT22;352;48.626;9.238;2023-03-01T10:19:32;17.40;51.60
736;DHT22;352;48.626;9.238;2023-03-01T10:22:05;17.30;51.50
736;DHT22;352;48.626;9.238;2023-03-01T10:24:37;17.80;52.10
736;DHT22;352;48.626;9.238;2023-03-01T10:27:07;18.00;51.10
736;DHT22;352;48.626;9.238;2023-03-01T10:29:39;18.00;49.90
736;DHT22;352;48.626;9.238;2023-03-01T10:32:10;17.60;49.70
736;DHT22;352;48.626;9.238;2023-03-01T10:34:37;17.60;50.60
736;DHT22;352;48.626;9.238;2023-03-01T10:37:10;17.30;51.40
736;DHT22;352;48.626;9.238;2023-03-01T10:39:55;17.10;51.80
736;DHT22;352;48.626;9.238;2023-03-01T10:42:27;17.40;51.20
736;DHT22;352;48.626;9.238;2023-03-01T10:44:55;17.60;51.00
736;DHT22;352;48.626;9.238;2023-03-01T10:47:23;17.30;50.40
736;DHT22;352;48.626;9.238;2023-03-01T10:49:59;17.40;51.20
736;DHT22;352;48.626;9.238;2023-03-01T10:52:29;17.60;50.90
736;DHT22;352;48.626;9.238;2023-03-01T10:54:59;17.10;52.20
736;DHT22;352;48.626;9.238;2023-03-01T10:57:35;17.10;51.10
736;DHT22;352;48.626;9.238;2023-03-01T11:00:23;17.30;50.40
736;DHT22;352;48.626;9.238;2023-03-01T11:03:02;16.90;51.00
736;DHT22;352;48.626;9.238;2023-03-01T11:05:29;16.90;50.20
736;DHT22;352;48.626;9.238;2023-03-01T11:07:59;17.00;49.90
736;DHT22;352;48.626;9.238;2023-03-01T11:10:29;15.80;50.40
736;DHT22;352;48.626;9.238;2023-03-01T11:13:06;15.60;51.30
736;DHT22;352;48.626;9.238;2023-03-01T11:15:33;15.70;51.50
736;DHT22;352;48.626;9.238;2023-03-01T11:18:00;15.60;51.60
736;DHT22;352;48.626;9.238;2023-03-01T11:20:31;15.30;52.00
736;DHT22;352;48.626;9.238;2023-03-01T11:23:01;15.40;52.50
736;DHT22;352;48.626;9.238;2023-03-01T11:25:33;15.00;54.10
736;DHT22;352;48.626;9.238;2023-03-01T11:28:04;14.80;54.30
736;DHT22;352;48.626;9.238;2023-03-01T11:30:34;14.40;54.10
736;DHT22;352;48.626;9.238;2023-03-01T11:33:11;14.40;54.30
736;DHT22;352;48.626;9.238;2023-03-01T11:35:44;14.10;53.90
736;DHT22;352;48.626;9.238;2023-03-01T11:38:18;13.60;55.00
736;DHT22;352;48.626;9.238;2023-03-01T11:40:51;13.20;56.00
736;DHT22;352;48.626;9.238;2023-03-01T11:43:24;12.60;56.20
736;DHT22;352;48.626;9.238;2023-03-01T11:46:02;12.10;57.00
736;DHT22;352;48.626;9.238;2023-03-01T11:48:49;11.70;58.40
736;DHT22;352;48.626;9.238;2023-03-01T11:51:24;11.20;80.70
736;DHT22;352;48.626;9.238;2023-03-01T11:54:04;11.00;83.90
736;DHT22;352;48.626;9.238;2023-03-01T11:56:35;9.60;80.90
736;DHT22;352;48.626;9.238;2023-03-01T11:59:20;10.70;77.80
736;DHT22;352;48.626;9.238;2023-03-01T12:02:02;10.10;73.90
736;DHT22;352;48.626;9.238;2023-03-01T12:07:31;9.80;77.10
736;DHT22;352;48.626;9.238;2023-03-01T12:10:18;9.30;88.00
736;DHT22;352;48.626;9.238;2023-03-01T12:15:58;9.40;80.20
736;DHT22;352;48.626;9.238;2023-03-01T12:18:48;9.60;92.20
736;DHT22;352;48.626;9.238;2023-03-01T12:21:27;9.60;81.90
736;DHT22;352;48.626;9.238;2023-03-01T12:24:20;9.70;82.00
736;DHT22;352;48.626;9.238;2023-03-01T12:27:00;9.80;90.40
736;DHT22;352;48.626;9.238;2023-03-01T12:29:36;9.60;70.50
736;DHT22;352;48.626;9.238;2023-03-01T12:32:28;9.50;70.20
736;DHT22;352;48.626;9.238;2023-03-01T12:35:32;9.60;95.80
736;DHT22;352;48.626;9.238;2023-03-01T12:38:13;9.40;70.90
736;DHT22;352;48.626;9.238;2023-03-01T12:41:05;9.30;71.50
736;DHT22;352;48.626;9.238;2023-03-01T12:43:44;9.40;70.70
736;DHT22;352;48.626;9.238;2023-03-01T12:46:29;9.60;75.00
736;DHT22;352;48.626;9.238;2023-03-01T12:49:08;9.20;80.10
736;DHT22;352;48.626;9.238;2023-03-01T12:51:37;9.50;71.70
736;DHT22;352;48.626;9.238;2023-03-01T12:54:10;9.50;71.70
736;DHT22;352;48.626;9.238;2023-03-01T12:56:39;9.50;90.50
736;DHT22;352;48.626;9.238;2023-03-01T12:59:13;9.40;72.10
736;DHT22;352;48.626;9.238;2023-03-01T13:01:48;9.50;73.50
736;DHT22;352;48.626;9.238;2023-03-01T13:04:40;9.70;90.40
736;DHT22;352;48.626;9.238;2023-03-01T13:07:21;9.40;98.20
736;DHT22;352;48.626;9.238;2023-03-01T13:09:59;9.50;73.40
736;DHT22;352;48.626;9.238;2023-03-01T13:12:51;9.70;99.90
736;DHT22;352;48.626;9.238;2023-03-01T13:15:26;9.40;71.40
736;DHT22;352;48.626;9.238;2023-03-01T13:17:56;9.40;72.10
736;DHT22;352;48.626;9.238;2023-03-01T13:20:26;9.40;73.70
736;DHT22;352;48.626;9.238;2023-03-01T13:23:08;9.40;73.20
736;DHT22;352;48.626;9.238;2023-03-01T13:26:01;9.50;72.10
736;DHT22;352;48.626;9.238;2023-03-01T13:28:53;9.40;74.10
736;DHT22;352;48.626;9.238;2023-03-01T13:34:54;9.40;74.10
736;DHT22;352;48.626;9.238;2023-03-01T13:37:27;9.40;73.10
736;DHT22;352;48.626;9.238;2023-03-01T13:39:56;9.30;73.80
736;DHT22;352;48.626;9.238;2023-03-01T13:42:38;9.70;98.70
736;DHT22;352;48.626;9.238;2023-03-01T13:45:19;9.50;75.70
736;DHT22;352;48.626;9.238;2023-03-01T13:47:49;9.50;74.50
736;DHT22;352;48.626;9.238;2023-03-01T13:50:20;9.30;85.10
736;DHT22;352;48.626;9.238;2023-03-01T13:52:52;9.40;77.30
736;DHT22;352;48.626;9.238;2023-03-01T13:55:21;9.80;93.50
736;DHT22;352;48.626;9.238;2023-03-01T13:57:54;9.50;74.90
736;DHT22;352;48.626;9.238;2023-03-01T14:03:10;9.40;95.70
736;DHT22;352;48.626;9.238;2023-03-01T14:05:38;9.50;74.90
736;DHT22;352;48.626;9.238;2023-03-01T14:08:18;9.50;75.10
736;DHT22;352;48.626;9.238;2023-03-01T14:11:04;9.40;74.50
736;DHT22;352;48.626;9.238;2023-03-01T14:13:48;9.40;75.80
736;DHT22;352;48.626;9.238;2023-03-01T14:16:27;9.30;99.90
736;DHT22;352;48.626;9.238;2023-03-01T14:19:05;9.50;73.20
736;DHT22;352;48.626;9.238;2023-03-01T14:24:04;9.90;99.90
736;DHT22;352;48.626;9.238;2023-03-01T14:26:32;9.70;74.70
736;DHT22;352;48.626;9.238;2023-03-01T14:29:03;9.70;74.70
736;DHT22;352;48.626;9.238;2023-03-01T14:31:36;9.70;74.40
736;DHT22;352;48.626;9.238;2023-03-01T14:34:04;9.70;74.60
736;DHT22;352;48.626;9.238;2023-03-01T14:36:32;9.60;75.10
736;DHT22;352;48.626;9.238;2023-03-01T14:41:32;9.40;99.90
736;DHT22;352;48.626;9.238;2023-03-01T14:44:05;9.90;98.80
736;DHT22;352;48.626;9.238;2023-03-01T14:46:34;9.30;75.60
736;DHT22;352;48.626;9.238;2023-03-01T14:49:04;9.40;74.50
736;DHT22;352;48.626;9.238;2023-03-01T14:51:36;9.30;75.10
736;DHT22;352;48.626;9.238;2023-03-01T14:54:05;9.50;86.50
736;DHT22;352;48.626;9.238;2023-03-01T14:56:44;10.00;74.20
736;DHT22;352;48.626;9.238;2023-03-01T14:59:13;9.30;74.20
736;DHT22;352;48.626;9.238;2023-03-01T15:01:40;9.30;75.60
736;DHT22;352;48.626;9.238;2023-03-01T15:04:11;9.20;75.30
736;DHT22;352;48.626;9.238;2023-03-01T15:09:06;9.20;76.10
736;DHT22;352;48.626;9.238;2023-03-01T15:14:38;9.20;75.80
736;DHT22;352;48.626;9.238;2023-03-01T15:17:19;9.20;76.70
736;DHT22;352;48.626;9.238;2023-03-01T15:19:47;9.40;94.10
736;DHT22;352;48.626;9.238;2023-03-01T15:22:15;9.00;77.90
736;DHT22;352;48.626;9.238;2023-03-01T15:24:46;8.90;78.20
736;DHT22;352;48.626;9.238;2023-03-01T15:27:16;8.80;90.60
736;DHT22;352;48.626;9.238;2023-03-01T15:29:49;9.10;91.40
736;DHT22;352;48.626;9.238;2023-03-01T15:32:28;8.90;79.40
736;DHT22;352;48.626;9.238;2023-03-01T15:34:56;8.50;86.20
736;DHT22;352;48.626;9.238;2023-03-01T15:37:44;8.90;79.10
736;DHT22;352;48.626;9.238;2023-03-01T15:40:20;8.80;78.30
736;DHT22;352;48.626;9.238;2023-03-01T15:42:50;8.40;91.00
736;DHT22;352;48.626;9.238;2023-03-01T15:45:26;8.80;78.80
736;DHT22;352;48.626;9.238;2023-03-01T15:47:54;8.70;78.80
736;DHT22;352;48.626;9.238;2023-03-01T15:50:25;9.10;91.40
736;DHT22;352;48.626;9.238;2023-03-01T15:52:52;8.60;79.90
736;DHT22;352;48.626;9.238;2023-03-01T15:55:20;8.50;79.90
736;DHT22;352;48.626;9.238;2023-03-01T15:57:48;8.50;80.20
736;DHT22;352;48.626;9.238;2023-03-01T16:00:16;9.10;88.40
736;DHT22;352;48.626;9.238;2023-03-01T16:02:45;8.30;95.30
736;DHT22;352;48.626;9.238;2023-03-01T16:05:19;8.40;79.70
736;DHT22;352;48.626;9.238;2023-03-01T16:07:46;8.40;94.00
736;DHT22;352;48.626;9.238;2023-03-01T16:10:12;8.20;90.80
736;DHT22;352;48.626;9.238;2023-03-01T16:15:15;8.40;92.10
736;DHT22;352;48.626;9.238;2023-03-01T16:17:42;8.40;95.00
736;DHT22;352;48.626;9.238;2023-03-01T16:20:11;8.20;94.50
736;DHT22;352;48.626;9.238;2023-03-01T16:22:41;8.30;91.60
736;DHT22;352;48.626;9.238;2023-03-01T16:25:09;7.90;95.50
736;DHT22;352;48.626;9.238;2023-03-01T16:27:35;7.70;95.60
736;DHT22;352;48.626;9.238;2023-03-01T16:30:03;8.00;80.80
736;DHT22;352;48.626;9.238;2023-03-01T16:34:57;7.60;90.60
736;DHT22;352;48.626;9.238;2023-03-01T16:37:25;7.50;90.30
736;DHT22;352;48.626;9.238;2023-03-01T16:39:52;7.70;96.90
736;DHT22;352;48.626;9.238;2023-03-01T16:42:19;7.60;95.20
736;DHT22;352;48.626;9.238;2023-03-01T16:44:45;7.30;91.00
736;DHT22;352;48.626;9.238;2023-03-01T16:47:12;7.50;97.20
736;DHT22;352;48.626;9.238;2023-03-01T16:49:39;7.70;95.90
736;DHT22;352;48.626;9.238;2023-03-01T16:52:06;7.60;90.80
736;DHT22;352;48.626;9.238;2023-03-01T16:54:34;7.60;91.10
736;DHT22;352;48.626;9.238;2023-03-01T16:57:00;7.20;91.50
736;DHT22;352;48.626;9.238;2023-03-01T16:59:27;7.30;91.50
736;DHT22;352;48.626;9.238;2023-03-01T17:01:54;7.20;91.50
736;DHT22;352;48.626;9.238;2023-03-01T17:04:20;7.10;94.00
736;DHT22;352;48.626;9.238;2023-03-01T17:06:47;7.20;91.70
736;DHT22;352;48.626;9.238;2023-03-01T17:09:14;7.50;91.70
736;DHT22;352;48.626;9.238;2023-03-01T17:11:43;7.20;97.90
736;DHT22;352;48.626;9.238;2023-03-01T17:14:10;7.00;93.70
736;DHT22;352;48.626;9.238;2023-03-01T17:16:36;6.90;92.70
736;DHT22;352;48.626;9.238;2023-03-01T17:21:30;6.80;92.00
736;DHT22;352;48.626;9.238;2023-03-01T17:23:57;7.00;94.40
736;DHT22;352;48.626;9.238;2023-03-01T17:28:52;6.90;98.80
736;DHT22;352;48.626;9.238;2023-03-01T17:31:20;6.50;96.00
736;DHT22;352;48.626;9.238;2023-03-01T17:33:46;6.70;94.10
736;DHT22;352;48.626;9.238;2023-03-01T17:38:41;6.60;93.40
736;DHT22;352;48.626;9.238;2023-03-01T17:43:37;6.90;89.20
736;DHT22;352;48.626;9.238;2023-03-01T17:46:05;6.20;93.80
736;DHT22;352;48.626;9.238;2023-03-01T17:48:32;6.40;94.10
736;DHT22;352;48.626;9.238;2023-03-01T17:53:25;6.10;96.10
736;DHT22;352;48.626;9.238;2023-03-01T17:55:59;6.30;88.70
736;DHT22;352;48.626;9.238;2023-03-01T17:58:26;6.20;98.80
736;DHT22;352;48.626;9.238;2023-03-01T18:00:53;6.10;90.40
736;DHT22;352;48.626;9.238;2023-03-01T18:03:21;6.20;94.40
736;DHT22;352;48.626;9.238;2023-03-01T18:05:47;6.30;95.20